createdAt,value
2023-03-29T00:00:21.877Z,101656.63
2023-03-29T00:02:50.212Z,101650.47
2023-03-29T00:05:18.827Z,101644.72
2023-03-29T00:07:46.646Z,101634.59
2023-03-29T00:10:15.876Z,101636.22
2023-03-29T00:12:43.703Z,101635.09
2023-03-29T00:15:11.849Z,101638.31
2023-03-29T00:17:40.079Z,101633.63
2023-03-29T00:20:10.208Z,101628.84
2023-03-29T00:22:39.801Z,101628.84
2023-03-29T00:25:08.146Z,101628.94
2023-03-29T00:27:37.724Z,101625.59
2023-03-29T00:30:06.105Z,101632.13
2023-03-29T00:32:34.590Z,101621.44
2023-03-29T00:35:02.392Z,101621.44
2023-03-29T00:37:30.899Z,101620.44
2023-03-29T00:39:59.136Z,101612.44
2023-03-29T00:42:27.260Z,101609.63
2023-03-29T00:45:05.982Z,101595.38
2023-03-29T00:47:36.734Z,101598.91
2023-03-29T00:50:07.543Z,101590.66
2023-03-29T00:52:37.331Z,101581.81
2023-03-29T00:55:07.732Z,101580.69
2023-03-29T00:57:37.337Z,101590.91
2023-03-29T01:00:09.910Z,101577.13
2023-03-29T01:02:39.878Z,101574.16
2023-03-29T01:05:09.730Z,101571.84
2023-03-29T01:07:42.374Z,101563.94
2023-03-29T01:10:13.557Z,101561.75
2023-03-29T01:12:43.980Z,101563.34
2023-03-29T01:15:14.209Z,101556.84
2023-03-29T01:17:50.330Z,101556.84
2023-03-29T01:20:22.221Z,101549.34
2023-03-29T01:23:00.618Z,101555.72
2023-03-29T01:25:33.303Z,101560.28
2023-03-29T01:28:04.599Z,101570.97
2023-03-29T01:30:34.588Z,101548.59
2023-03-29T01:33:05.369Z,101547.47
2023-03-29T01:35:35.724Z,101545.41
2023-03-29T01:38:07.334Z,101540.25
2023-03-29T01:40:35.350Z,101543.28
2023-03-29T01:43:12.017Z,101544.56
2023-03-29T01:45:43.324Z,101537.75
2023-03-29T01:48:15.328Z,101533.47
2023-03-29T01:50:46.277Z,101524.22
2023-03-29T01:53:18.217Z,101532.47
2023-03-29T01:55:48.543Z,101525.84
2023-03-29T01:58:18.295Z,101523.88
2023-03-29T02:00:47.379Z,101505.06
2023-03-29T02:03:17.594Z,101507.47
2023-03-29T02:05:45.998Z,101501.97
2023-03-29T02:08:16.050Z,101501.47
2023-03-29T02:10:43.961Z,101505.78
2023-03-29T02:13:12.501Z,101493.47
2023-03-29T02:15:41.641Z,101502.34
2023-03-29T02:18:09.456Z,101490.66
2023-03-29T02:20:40.655Z,101489.06
2023-03-29T02:23:10.296Z,101489.91
2023-03-29T02:25:38.476Z,101487.81
2023-03-29T02:28:07.247Z,101487.66
2023-03-29T02:30:39.323Z,101476.13
2023-03-29T02:33:11.065Z,101475.66
2023-03-29T02:35:42.611Z,101470.59
2023-03-29T02:38:11.505Z,101469.25
2023-03-29T02:40:42.565Z,101472.44
2023-03-29T02:43:11.531Z,101467.63
2023-03-29T02:45:41.144Z,101459.41
2023-03-29T02:48:13.579Z,101458.91
2023-03-29T02:50:43.645Z,101460.50
2023-03-29T02:53:14.169Z,101458.66
2023-03-29T02:55:46.090Z,101445.13
2023-03-29T02:58:15.377Z,101445.72
2023-03-29T03:00:45.755Z,101442.16
2023-03-29T03:03:15.404Z,101439.91
2023-03-29T03:05:45.232Z,101439.91
2023-03-29T03:08:13.981Z,101442.06
2023-03-29T03:10:41.996Z,101441.78
2023-03-29T03:13:09.841Z,101430.44
2023-03-29T03:15:41.357Z,101431.16
2023-03-29T03:18:09.547Z,101428.00
2023-03-29T03:20:40.105Z,101431.22
2023-03-29T03:23:09.013Z,101426.88
2023-03-29T03:25:36.862Z,101428.50
2023-03-29T03:28:05.107Z,101419.91
2023-03-29T03:30:33.858Z,101410.34
2023-03-29T03:33:20.330Z,101410.09
2023-03-29T03:36:18.220Z,101407.72
2023-03-29T03:38:46.712Z,101405.63
2023-03-29T03:41:14.513Z,101415.25
2023-03-29T03:43:45.989Z,101407.31
2023-03-29T03:46:14.118Z,101412.38
2023-03-29T03:48:41.992Z,101404.41
2023-03-29T03:51:18.489Z,101406.09
2023-03-29T03:53:46.618Z,101398.75
2023-03-29T03:56:14.600Z,101396.38
2023-03-29T03:59:02.568Z,101396.81
2023-03-29T04:01:35.416Z,101394.66
2023-03-29T04:04:14.352Z,101393.41
2023-03-29T04:06:54.085Z,101391.78
2023-03-29T04:09:49.973Z,101389.94
2023-03-29T04:12:28.826Z,101380.06
2023-03-29T04:14:56.693Z,101385.75
2023-03-29T04:17:26.417Z,101383.16
2023-03-29T04:20:20.363Z,101381.06
2023-03-29T04:22:49.761Z,101371.41
2023-03-29T04:25:18.094Z,101375.59
2023-03-29T04:27:49.050Z,101379.72
2023-03-29T04:30:31.321Z,101371.94
2023-03-29T04:33:01.899Z,101368.97
2023-03-29T04:35:30.364Z,101358.88
2023-03-29T04:37:59.788Z,101369.63
2023-03-29T04:40:28.862Z,101376.25
2023-03-29T04:43:09.940Z,101369.88
2023-03-29T04:45:43.450Z,101367.53
2023-03-29T04:48:16.614Z,101364.97
2023-03-29T04:50:47.471Z,101368.53
2023-03-29T04:53:18.417Z,101365.44
2023-03-29T04:55:47.693Z,101362.75
2023-03-29T04:58:25.239Z,101367.25
2023-03-29T05:00:56.613Z,101354.59
2023-03-29T05:03:32.344Z,101366.91
2023-03-29T05:06:07.110Z,101364.66
2023-03-29T05:08:39.315Z,101362.22
2023-03-29T05:11:30.458Z,101364.47
2023-03-29T05:14:02.338Z,101347.75
2023-03-29T05:16:33.037Z,101349.75
2023-03-29T05:19:01.491Z,101353.50
2023-03-29T05:21:30.444Z,101351.09
2023-03-29T05:24:04.629Z,101344.56
2023-03-29T05:26:51.976Z,101354.06
2023-03-29T05:29:20.334Z,101347.09
2023-03-29T05:31:54.141Z,101351.56
2023-03-29T05:34:22.552Z,101362.59
2023-03-29T05:36:54.460Z,101356.28
2023-03-29T05:39:23.880Z,101356.34
2023-03-29T05:41:51.684Z,101347.84
2023-03-29T05:44:25.512Z,101348.72
2023-03-29T05:46:59.342Z,101349.56
2023-03-29T05:49:27.184Z,101350.69
2023-03-29T05:52:15.698Z,101357.22
2023-03-29T05:54:44.897Z,101349.16
2023-03-29T05:57:13.437Z,101360.94
2023-03-29T05:59:42.359Z,101360.75
2023-03-29T06:02:11.195Z,101363.94
2023-03-29T06:04:44.036Z,101361.78
2023-03-29T06:07:24.578Z,101361.25
2023-03-29T06:10:14.079Z,101363.94
2023-03-29T06:12:47.003Z,101366.94
2023-03-29T06:15:15.949Z,101371.50
2023-03-29T06:17:50.133Z,101368.53
2023-03-29T06:20:18.562Z,101358.34
2023-03-29T06:22:51.512Z,101360.84
2023-03-29T06:25:21.231Z,101363.88
2023-03-29T06:27:52.113Z,101356.28
2023-03-29T06:30:21.579Z,101370.22
2023-03-29T06:32:52.921Z,101364.22
2023-03-29T06:35:42.982Z,101372.44
2023-03-29T06:38:15.170Z,101372.88
2023-03-29T06:41:08.878Z,101365.03
2023-03-29T06:43:58.419Z,101378.59
2023-03-29T06:46:33.261Z,101375.34
2023-03-29T06:49:06.432Z,101372.75
2023-03-29T06:51:48.701Z,101353.97
2023-03-29T06:54:16.977Z,101355.41
2023-03-29T06:56:59.566Z,101362.75
2023-03-29T06:59:29.361Z,101357.28
2023-03-29T07:01:59.807Z,101356.69
2023-03-29T07:04:46.128Z,101360.56
2023-03-29T07:07:22.177Z,101349.75
2023-03-29T07:09:55.706Z,101357.25
2023-03-29T07:12:46.210Z,101360.91
2023-03-29T07:15:16.403Z,101359.19
2023-03-29T07:18:04.909Z,101360.56
2023-03-29T07:20:34.215Z,101361.91
2023-03-29T07:23:10.673Z,101366.16
2023-03-29T07:25:41.012Z,101367.38
2023-03-29T07:28:11.326Z,101358.47
2023-03-29T07:30:40.182Z,101368.50
2023-03-29T07:33:17.933Z,101371.03
2023-03-29T07:35:59.436Z,101380.09
2023-03-29T07:38:28.635Z,101385.25
2023-03-29T07:41:04.915Z,101378.50
2023-03-29T07:43:34.800Z,101386.81
2023-03-29T07:46:03.104Z,101387.72
2023-03-29T07:48:33.772Z,101383.97
2023-03-29T07:51:06.109Z,101392.94
2023-03-29T07:53:43.028Z,101389.72
2023-03-29T07:56:29.086Z,101387.25
2023-03-29T07:59:21.624Z,101387.41
2023-03-29T08:02:01.783Z,101385.81
2023-03-29T08:04:34.638Z,101388.56
2023-03-29T08:07:19.924Z,101383.91
2023-03-29T08:10:21.602Z,101391.63
2023-03-29T08:12:58.293Z,101383.06
2023-03-29T08:15:40.992Z,101369.56
2023-03-29T08:18:19.391Z,101367.03
2023-03-29T08:20:47.162Z,101369.50
2023-03-29T08:23:14.897Z,101382.97
2023-03-29T08:26:03.270Z,101375.78
2023-03-29T08:28:32.213Z,101373.91
2023-03-29T08:31:02.499Z,101360.31
2023-03-29T08:33:30.503Z,101352.97
2023-03-29T08:36:18.540Z,101342.47
2023-03-29T08:38:47.442Z,101366.72
2023-03-29T08:41:30.825Z,101354.66
2023-03-29T08:44:10.874Z,101362.69
2023-03-29T08:47:03.779Z,101357.56
2023-03-29T08:49:39.903Z,101349.28
2023-03-29T08:52:21.085Z,101347.13
2023-03-29T08:54:54.061Z,101344.88
2023-03-29T08:57:32.910Z,101340.28
2023-03-29T09:00:18.920Z,101333.44
2023-03-29T09:02:49.472Z,101343.66
2023-03-29T09:05:23.950Z,101332.13
2023-03-29T09:08:01.106Z,101329.63
2023-03-29T09:10:40.949Z,101330.59
2023-03-29T09:13:26.030Z,101344.19
2023-03-29T09:16:05.830Z,101328.78
2023-03-29T09:18:53.145Z,101331.63
2023-03-29T09:21:27.355Z,101327.97
2023-03-29T09:24:24.338Z,101312.38
2023-03-29T09:27:04.234Z,101308.84
2023-03-29T09:29:51.352Z,101300.25
2023-03-29T09:32:33.078Z,101297.69
2023-03-29T09:35:18.621Z,101303.53
2023-03-29T09:37:49.048Z,101299.84
2023-03-29T09:40:23.710Z,101289.84
2023-03-29T09:43:05.309Z,101280.69
2023-03-29T09:45:33.611Z,101285.38
2023-03-29T09:48:10.355Z,101294.81
2023-03-29T09:50:43.192Z,101302.09
2023-03-29T09:53:12.626Z,101301.13
2023-03-29T09:55:49.790Z,101306.00
2023-03-29T09:58:31.032Z,101299.69
2023-03-29T10:01:00.744Z,101292.13
2023-03-29T10:03:31.094Z,101298.38
2023-03-29T10:06:10.835Z,101311.25
2023-03-29T10:08:42.984Z,101297.97
2023-03-29T10:11:18.970Z,101305.25
2023-03-29T10:13:50.645Z,101305.69
2023-03-29T10:16:22.053Z,101318.28
2023-03-29T10:18:51.176Z,101310.00
2023-03-29T10:21:21.329Z,101317.72
2023-03-29T10:23:50.395Z,101312.69
2023-03-29T10:26:28.723Z,101312.28
2023-03-29T10:29:00.348Z,101316.44
2023-03-29T10:31:31.203Z,101310.81
2023-03-29T10:34:05.069Z,101305.94
2023-03-29T10:36:35.460Z,101308.06
2023-03-29T10:39:06.354Z,101304.94
2023-03-29T10:41:36.450Z,101307.63
2023-03-29T10:44:05.276Z,101304.16
2023-03-29T10:46:41.211Z,101312.97
2023-03-29T10:49:19.089Z,101309.34
2023-03-29T10:51:50.716Z,101316.47
2023-03-29T10:54:22.200Z,101306.34
2023-03-29T10:56:53.673Z,101307.44
2023-03-29T10:59:29.723Z,101295.78
2023-03-29T11:02:29.978Z,101299.75
2023-03-29T11:05:13.592Z,101299.84
2023-03-29T11:07:57.308Z,101300.47
2023-03-29T11:10:36.611Z,101301.44
2023-03-29T11:13:13.830Z,101305.41
2023-03-29T11:15:52.886Z,101306.28
2023-03-29T11:18:53.419Z,101306.78
2023-03-29T11:21:29.832Z,101277.81
2023-03-29T11:24:25.303Z,101280.66
2023-03-29T11:27:05.711Z,101283.84
2023-03-29T11:29:41.145Z,101277.84
2023-03-29T11:32:15.759Z,101275.19
2023-03-29T11:34:58.856Z,101285.50
2023-03-29T11:37:34.925Z,101293.13
2023-03-29T11:40:18.003Z,101294.66
2023-03-29T11:42:49.456Z,101289.53
2023-03-29T11:45:24.421Z,101298.53
2023-03-29T11:47:55.627Z,101304.38
2023-03-29T11:50:30.396Z,101294.25
2023-03-29T11:53:03.324Z,101297.94
2023-03-29T11:55:36.774Z,101292.16
2023-03-29T11:58:11.135Z,101289.81
2023-03-29T12:00:44.937Z,101285.13
2023-03-29T12:03:16.083Z,101282.56
2023-03-29T12:05:49.426Z,101287.69
2023-03-29T12:08:23.613Z,101269.00
2023-03-29T12:11:02.810Z,101292.78
2023-03-29T12:13:35.184Z,101259.91
2023-03-29T12:16:12.402Z,101262.94
2023-03-29T12:18:42.881Z,101254.84
2023-03-29T12:21:15.293Z,101252.13
2023-03-29T12:23:45.903Z,101255.63
2023-03-29T12:26:28.333Z,101251.94
2023-03-29T12:29:10.059Z,101251.25
2023-03-29T12:31:46.992Z,101246.81
2023-03-29T12:34:37.748Z,101251.94
2023-03-29T12:37:39.118Z,101247.41
2023-03-29T12:40:29.434Z,101239.88
2023-03-29T12:43:24.655Z,101238.16
2023-03-29T12:46:17.432Z,101230.88
2023-03-29T12:48:47.737Z,101239.75
2023-03-29T12:51:18.438Z,101241.31
2023-03-29T12:53:48.254Z,101230.28
2023-03-29T12:56:18.729Z,101233.34
2023-03-29T12:59:18.564Z,101233.53
2023-03-29T13:02:00.253Z,101233.59
2023-03-29T13:04:49.746Z,101237.13
2023-03-29T13:07:31.217Z,101237.81
2023-03-29T13:10:01.412Z,101236.75
2023-03-29T13:12:33.406Z,101229.69
2023-03-29T13:15:06.835Z,101222.44
2023-03-29T13:17:51.778Z,101215.63
2023-03-29T13:20:32.388Z,101219.06
2023-03-29T13:23:17.801Z,101209.34
2023-03-29T13:26:02.340Z,101207.47
2023-03-29T13:28:41.594Z,101203.03
2023-03-29T13:31:34.775Z,101213.63
2023-03-29T13:34:08.972Z,101208.66
2023-03-29T13:36:53.704Z,101206.94
2023-03-29T13:39:24.329Z,101202.34
2023-03-29T13:41:54.878Z,101199.13
2023-03-29T13:44:36.129Z,101194.00
2023-03-29T13:47:16.442Z,101193.16
2023-03-29T13:49:51.707Z,101192.13
2023-03-29T13:52:25.627Z,101188.88
2023-03-29T13:54:58.740Z,101180.50
2023-03-29T13:57:34.190Z,101176.75
2023-03-29T14:00:11.999Z,101179.16
2023-03-29T14:02:49.690Z,101182.22
2023-03-29T14:05:20.735Z,101182.53
2023-03-29T14:07:51.637Z,101178.25
2023-03-29T14:10:23.898Z,101180.47
2023-03-29T14:12:52.406Z,101179.47
2023-03-29T14:15:24.234Z,101177.06
2023-03-29T14:18:00.827Z,101175.03
2023-03-29T14:20:31.801Z,101165.47
2023-03-29T14:23:00.688Z,101157.44
2023-03-29T14:25:30.661Z,101165.28
2023-03-29T14:27:58.962Z,101153.34
2023-03-29T14:30:29.336Z,101149.91
2023-03-29T14:32:59.078Z,101150.78
2023-03-29T14:35:33.493Z,101151.41
2023-03-29T14:38:03.806Z,101146.63
2023-03-29T14:40:32.674Z,101157.25
2023-03-29T14:43:07.193Z,101158.44
2023-03-29T14:45:35.651Z,101152.09
2023-03-29T14:48:05.927Z,101143.75
2023-03-29T14:50:36.557Z,101151.13
2023-03-29T14:53:06.748Z,101140.69
2023-03-29T14:55:36.563Z,101144.28
2023-03-29T14:58:04.699Z,101129.72
2023-03-29T15:00:42.256Z,101122.31
2023-03-29T15:03:16.593Z,101130.84
2023-03-29T15:05:48.806Z,101126.91
2023-03-29T15:08:19.939Z,101126.13
2023-03-29T15:10:48.225Z,101120.66
2023-03-29T15:13:20.970Z,101110.22
2023-03-29T15:15:53.636Z,101094.16
2023-03-29T15:18:28.877Z,101094.94
2023-03-29T15:20:56.820Z,101084.31
2023-03-29T15:23:26.424Z,101092.69
2023-03-29T15:25:58.394Z,101095.41
2023-03-29T15:28:30.737Z,101098.41
2023-03-29T15:31:07.861Z,101093.66
2023-03-29T15:33:39.786Z,101100.38
2023-03-29T15:36:09.995Z,101094.91
2023-03-29T15:41:10.608Z,101083.59
2023-03-29T15:43:38.947Z,101089.28
2023-03-29T15:46:07.623Z,101081.97
2023-03-29T15:48:37.478Z,101075.47
2023-03-29T15:51:06.995Z,101065.88
2023-03-29T15:53:36.371Z,101064.16
2023-03-29T15:56:07.923Z,101072.72
2023-03-29T15:58:37.027Z,101066.06
2023-03-29T16:01:13.228Z,101065.34
2023-03-29T16:03:46.979Z,101062.59
2023-03-29T16:06:17.326Z,101073.25
2023-03-29T16:08:46.019Z,101069.34
2023-03-29T16:11:14.081Z,101069.28
2023-03-29T16:13:42.196Z,101053.38
2023-03-29T16:16:12.255Z,101043.34
2023-03-29T16:18:40.663Z,101051.72
2023-03-29T16:21:14.264Z,101046.31
2023-03-29T16:23:42.899Z,101048.09
2023-03-29T16:26:13.723Z,101039.63
2023-03-29T16:28:43.324Z,101054.63
2023-03-29T16:31:13.381Z,101050.25
2023-03-29T16:33:42.282Z,101047.75
2023-03-29T16:36:12.109Z,101049.63
2023-03-29T16:38:40.630Z,101047.38
2023-03-29T16:41:09.041Z,101037.94
2023-03-29T16:43:38.601Z,101026.28
2023-03-29T16:46:08.816Z,101019.69
2023-03-29T16:48:37.260Z,101027.19
2023-03-29T16:51:06.931Z,101024.59
2023-03-29T16:53:36.409Z,101014.53
2023-03-29T16:56:05.973Z,100998.66
2023-03-29T16:58:34.254Z,101003.50
2023-03-29T17:01:09.936Z,101006.75
2023-03-29T17:03:38.379Z,100994.78
2023-03-29T17:06:07.799Z,100988.81
2023-03-29T17:08:37.390Z,100991.00
2023-03-29T17:11:07.500Z,100988.41
2023-03-29T17:13:35.574Z,100990.84
2023-03-29T17:16:04.042Z,100976.66
2023-03-29T17:18:32.696Z,100986.41
2023-03-29T17:21:01.651Z,100989.88
2023-03-29T17:23:29.835Z,100987.13
2023-03-29T17:25:59.660Z,100975.47
2023-03-29T17:28:27.623Z,100978.91
2023-03-29T17:30:55.992Z,100982.00
2023-03-29T17:33:25.885Z,100992.00
2023-03-29T17:35:53.881Z,100992.88
2023-03-29T17:38:21.900Z,100992.53
2023-03-29T17:40:53.559Z,100994.28
2023-03-29T17:43:23.362Z,100991.53
2023-03-29T17:45:52.641Z,100997.84
2023-03-29T17:48:21.249Z,100993.25
2023-03-29T17:50:49.445Z,100990.69
2023-03-29T17:53:19.488Z,101005.22
2023-03-29T17:55:47.455Z,100988.28
2023-03-29T17:58:15.382Z,100993.03
2023-03-29T18:00:44.894Z,100987.63
2023-03-29T18:03:14.584Z,100990.16
2023-03-29T18:05:42.921Z,100983.69
2023-03-29T18:08:12.824Z,100976.50
2023-03-29T18:10:40.758Z,100977.03
2023-03-29T18:13:11.220Z,100983.69
2023-03-29T18:15:39.185Z,100981.47
2023-03-29T18:18:08.685Z,100987.75
2023-03-29T18:20:36.725Z,100973.63
2023-03-29T18:23:04.951Z,100978.75
2023-03-29T18:25:32.988Z,100974.97
2023-03-29T18:28:00.834Z,100964.22
2023-03-29T18:30:28.781Z,100959.09
2023-03-29T18:32:56.819Z,100963.88
2023-03-29T18:35:26.199Z,100971.72
2023-03-29T18:37:55.043Z,100968.16
2023-03-29T18:40:24.876Z,100971.91
2023-03-29T18:42:53.202Z,100965.94
2023-03-29T18:45:21.456Z,100956.19
2023-03-29T18:47:50.648Z,100953.00
2023-03-29T18:50:18.968Z,100949.53
2023-03-29T18:52:48.317Z,100954.19
2023-03-29T18:55:16.524Z,100942.06
2023-03-29T18:57:44.554Z,100938.00
2023-03-29T19:00:13.225Z,100931.31
2023-03-29T19:02:41.353Z,100923.78
2023-03-29T19:05:10.886Z,100916.78
2023-03-29T19:07:39.173Z,100917.28
2023-03-29T19:10:09.745Z,100904.69
2023-03-29T19:12:37.729Z,100899.38
2023-03-29T19:15:07.172Z,100901.25
2023-03-29T19:17:35.339Z,100899.38
2023-03-29T19:20:04.774Z,100901.41
2023-03-29T19:22:34.003Z,100898.50
2023-03-29T19:25:02.022Z,100910.25
2023-03-29T19:27:31.729Z,100900.88
2023-03-29T19:29:59.792Z,100893.72
2023-03-29T19:32:27.882Z,100899.53
2023-03-29T19:34:55.971Z,100885.88
2023-03-29T19:37:23.877Z,100877.19
2023-03-29T19:39:54.532Z,100875.09
2023-03-29T19:42:22.714Z,100877.19
2023-03-29T19:44:52.295Z,100879.06
2023-03-29T19:47:20.129Z,100880.41
2023-03-29T19:49:48.071Z,100877.00
2023-03-29T19:52:16.104Z,100862.66
2023-03-29T19:54:44.250Z,100859.41
2023-03-29T19:57:12.533Z,100857.19
2023-03-29T19:59:41.078Z,100857.34
2023-03-29T20:02:12.293Z,100854.47
2023-03-29T20:04:40.852Z,100849.50
2023-03-29T20:07:09.058Z,100844.16
2023-03-29T20:09:37.710Z,100844.56
2023-03-29T20:12:06.049Z,100840.09
2023-03-29T20:14:34.932Z,100827.44
2023-03-29T20:17:03.472Z,100818.91
2023-03-29T20:19:36.727Z,100827.28
2023-03-29T20:22:05.268Z,100819.94
2023-03-29T20:24:34.693Z,100814.13
2023-03-29T20:27:05.589Z,100807.28
2023-03-29T20:29:34.081Z,100807.63
2023-03-29T20:32:02.934Z,100798.09
2023-03-29T20:34:32.767Z,100790.41
2023-03-29T20:37:06.685Z,100781.84
2023-03-29T20:39:35.952Z,100780.31
2023-03-29T20:42:04.340Z,100772.13
2023-03-29T20:44:34.861Z,100770.91
2023-03-29T20:47:08.286Z,100769.69
2023-03-29T20:49:38.146Z,100760.78
2023-03-29T20:52:08.570Z,100763.72
2023-03-29T20:54:39.707Z,100766.72
2023-03-29T20:57:08.081Z,100761.63
2023-03-29T20:59:38.023Z,100751.72
2023-03-29T21:02:06.949Z,100752.03
2023-03-29T21:04:37.189Z,100742.66
2023-03-29T21:07:08.159Z,100718.56
2023-03-29T21:09:38.711Z,100723.38
2023-03-29T21:12:07.316Z,100728.31
2023-03-29T21:14:38.952Z,100710.03
2023-03-29T21:17:09.286Z,100697.09
2023-03-29T21:19:43.974Z,100695.41
2023-03-29T21:22:16.692Z,100701.28
2023-03-29T21:24:45.194Z,100688.03
2023-03-29T21:27:14.452Z,100685.88
2023-03-29T21:29:44.251Z,100683.66
2023-03-29T21:32:14.980Z,100680.56
2023-03-29T21:34:44.708Z,100669.66
2023-03-29T21:37:15.372Z,100667.78
2023-03-29T21:39:44.141Z,100655.34
2023-03-29T21:42:15.516Z,100661.69
2023-03-29T21:44:44.638Z,100653.00
2023-03-29T21:47:13.036Z,100647.31
2023-03-29T21:49:46.263Z,100647.78
2023-03-29T21:52:15.231Z,100640.78
2023-03-29T21:54:44.007Z,100647.06
2023-03-29T21:57:12.755Z,100635.09
2023-03-29T21:59:41.796Z,100623.31
2023-03-29T22:02:11.060Z,100609.78
2023-03-29T22:04:39.343Z,100626.16
2023-03-29T22:07:10.930Z,100623.91
2023-03-29T22:09:41.317Z,100618.81
2023-03-29T22:12:10.692Z,100607.25
2023-03-29T22:14:38.685Z,100602.31
2023-03-29T22:17:07.053Z,100610.72
2023-03-29T22:19:38.821Z,100600.59
2023-03-29T22:22:13.505Z,100601.19
2023-03-29T22:24:42.251Z,100593.38
2023-03-29T22:27:10.679Z,100591.34
2023-03-29T22:29:38.709Z,100591.59
2023-03-29T22:32:06.900Z,100596.78
2023-03-29T22:34:35.473Z,100594.53
2023-03-29T22:37:03.913Z,100591.69
2023-03-29T22:39:35.983Z,100600.56
2023-03-29T22:42:04.246Z,100591.03
2023-03-29T22:44:34.039Z,100588.06
2023-03-29T22:47:02.531Z,100587.94
2023-03-29T22:49:31.000Z,100590.78
2023-03-29T22:51:59.692Z,100586.72
2023-03-29T22:54:27.824Z,100585.09
2023-03-29T22:56:57.774Z,100585.34
2023-03-29T22:59:26.927Z,100569.09
2023-03-29T23:01:55.028Z,100558.91
2023-03-29T23:04:23.270Z,100555.06
2023-03-29T23:06:51.527Z,100548.09
2023-03-29T23:09:19.659Z,100541.41
2023-03-29T23:11:47.813Z,100533.44
2023-03-29T23:14:18.945Z,100525.63
2023-03-29T23:16:47.291Z,100517.31
2023-03-29T23:19:15.294Z,100504.72
2023-03-29T23:21:43.297Z,100498.97
2023-03-29T23:24:11.171Z,100495.88
2023-03-29T23:26:39.144Z,100485.88
2023-03-29T23:29:07.688Z,100488.44
2023-03-29T23:31:37.889Z,100486.34
2023-03-29T23:34:06.158Z,100486.44
2023-03-29T23:36:34.045Z,100477.03
2023-03-29T23:39:02.013Z,100476.84
2023-03-29T23:41:30.473Z,100473.94
2023-03-29T23:43:58.595Z,100475.31
2023-03-29T23:46:26.610Z,100466.88
2023-03-29T23:48:56.113Z,100473.28
2023-03-29T23:51:28.471Z,100485.16
2023-03-29T23:53:57.066Z,100483.16
2023-03-29T23:56:25.121Z,100485.50
2023-03-29T23:58:53.066Z,100476.94
